Flight Track Log - Related Links

Times and Time Zones

All times are in EDT time to prevent confusion due to time zone crossing. See the AAY843 flight status page for this flight to view local times or setup timezone preferences in your user account.

Time Position Orientation Groundspeed Altitude Reporting Facility
EDT Latitude Longitude Course Direction KTS MPH feet Rate Location/Type
Sun 10:32:23 AM 43.1075 -76.1333 259° West 175 201 1,100  Level Boston Center
Sun 10:33:37 AM 43.0942 -76.2253 259° West 223 257 3,000 2,060 Climbing Boston Center
Sun 10:34:37 AM 43.0422 -76.2906 223° Southwest 285 328 5,700 2,415 Climbing Boston Center
Sun 10:34:59 AM 43.0258 -76.3039 211° Southwest 252 290 6,300 2,302 Climbing Boston Center
Sun 10:36:03 AM 42.9600 -76.3639 214° Southwest 284 327 9,000 1,935 Climbing Boston Center
Sun 10:37:03 AM 42.8719 -76.4308 209° Southwest 297 342 10,300 1,289 Climbing Boston Center
Sun 10:38:04 AM 42.7881 -76.4933 209° Southwest 333 383 11,600 1,680 Climbing Boston Center
Sun 10:39:08 AM 42.6919 -76.5669 209° Southwest 381 438 13,800 2,129 Climbing Boston Center
Sun 10:40:08 AM 42.5947 -76.6475 211° Southwest 401 461 16,000 2,132 Climbing Boston Center
Sun 10:41:09 AM 42.4906 -76.7200 207° Southwest 416 479 18,100 1,967 Climbing Boston Center
Sun 10:42:10 AM 42.3689 -76.7444 188° South 434 499 20,000 1,645 Climbing Boston Center
Sun 10:43:13 AM 42.2422 -76.7586 185° South 451 519 21,500 1,805 Climbing Boston Center
Sun 10:44:03 AM 42.1131 -76.7758 186° South 462 532 23,400 1,745 Climbing New York Center
Sun 10:45:03 AM 42.0100 -76.7942 188° South 468 539 24,700 1,800 Climbing New York Center
Sun 10:46:03 AM 41.8564 -76.8250 189° South 468 539 27,000 1,800 Climbing New York Center
Sun 10:47:03 AM 41.7536 -76.8406 186° South 468 539 28,300 1,400 Climbing New York Center
Sun 10:48:03 AM 41.6172 -76.8614 187° South 468 539 29,800 1,650 Climbing New York Center
Sun 10:49:03 AM 41.4933 -76.8808 187° South 468 539 31,600 1,100 Climbing New York Center
Sun 10:50:03 AM 41.3711 -76.9056 189° South 458 527 32,000 200 Climbing New York Center
Sun 10:51:03 AM 41.2475 -76.9219 186° South 453 521 32,000  Level New York Center
Sun 10:52:03 AM 41.1253 -76.9467 189° South 448 516 32,000  Level New York Center
Sun 10:53:03 AM 41.0014 -76.9656 187° South 448 516 32,000  Level New York Center
Sun 10:54:03 AM 40.8797 -76.9819 186° South 448 516 32,000 250 Level New York Center
Sun 10:55:03 AM 40.7536 -77.0008 186° South 448 516 32,500 500 Climbing New York Center
Sun 10:56:03 AM 40.6317 -77.0197 187° South 448 516 33,000 250 Climbing New York Center
Sun 10:57:03 AM 40.5139 -77.0392 187° South 448 516 33,000  Level New York Center
Sun 10:58:03 AM 40.3900 -77.0578 187° South 448 516 33,000  Level New York Center
Sun 10:59:03 AM 40.2697 -77.0878 191° South 448 516 33,000  Level New York Center
Sun 11:00:03 AM 40.1544 -77.1369 198° South 448 516 33,000  Level New York Center
Sun 11:01:03 AM 40.0469 -77.1978 203° Southwest 435 501 33,000  Level New York Center
Sun 11:03:10 AM 39.7992 -77.3172 200° South 435 501 33,000  Level Washington Center
Sun 11:04:12 AM 39.6839 -77.3683 199° South 435 501 33,000  Level Washington Center
Sun 11:05:12 AM 39.5706 -77.4222 200° South 430 495 33,000  Level Washington Center
Sun 11:06:10 AM 39.4572 -77.4811 202° Southwest 435 501 33,000  Level Washington Center
Sun 11:07:11 AM 39.3458 -77.5372 201° Southwest 435 501 33,000  Level Washington Center
Sun 11:08:11 AM 39.2325 -77.5878 199° South 435 501 33,000 -198 Level Washington Center
Sun 11:09:12 AM 39.1211 -77.6383 199° South 430 495 32,600 -446 Descending Washington Center
Sun 11:10:12 AM 39.0203 -77.6861 200° South 430 495 32,100 -305 Descending Washington Center
Sun 11:11:10 AM 38.8942 -77.7467 200° South 435 501 32,000 -50 Descending Washington Center
Sun 11:12:11 AM 38.7764 -77.8072 202° Southwest 435 501 32,000  Level Washington Center
Sun 11:13:12 AM 38.6647 -77.8569 199° South 443 510 32,000  Level Washington Center
Sun 11:14:12 AM 38.5472 -77.9092 199° South 443 510 32,000 504 Level Washington Center
Sun 11:15:11 AM 38.4397 -77.9667 203° Southwest 438 504 33,000 605 Climbing Washington Center
Sun 11:16:11 AM 38.3378 -78.0536 214° Southwest 425 489 33,200 496 Climbing Washington Center
Sun 11:17:12 AM 38.2442 -78.1431 217° Southwest 430 495 34,000 403 Climbing Washington Center
Sun 11:18:10 AM 38.1506 -78.2269 215° Southwest 430 495 34,000  Level Washington Center
Sun 11:19:11 AM 38.0486 -78.3078 212° Southwest 430 495 34,000  Level Washington Center
Sun 11:20:12 AM 37.9636 -78.3811 214° Southwest 430 495 34,000  Level Washington Center
Sun 11:21:12 AM 37.8656 -78.4694 215° Southwest 430 495 34,000  Level Washington Center
Sun 11:22:11 AM 37.7675 -78.5550 215° Southwest 435 501 34,000  Level Washington Center
Sun 11:23:11 AM 37.6653 -78.6403 213° Southwest 435 501 34,000  Level Washington Center
Sun 11:24:12 AM 37.5653 -78.7200 212° Southwest 435 501 34,000  Level Washington Center
Sun 11:25:10 AM 37.4628 -78.8075 214° Southwest 435 501 34,000  Level Washington Center
Sun 11:26:11 AM 37.3622 -78.8947 215° Southwest 435 501 34,000  Level Washington Center
Sun 11:27:12 AM 37.2619 -78.9764 213° Southwest 435 501 34,000  Level Washington Center
Sun 11:28:10 AM 37.1594 -79.0606 213° Southwest 435 501 34,000  Level Washington Center
Sun 11:29:10 AM 37.0589 -79.1419 213° Southwest 435 501 34,000  Level Washington Center
Sun 11:30:11 AM 36.9583 -79.2256 214° Southwest 435 501 34,000  Level Washington Center
Sun 11:31:12 AM 36.8578 -79.3117 214° Southwest 435 501 34,000  Level Washington Center
Sun 11:32:10 AM 36.7483 -79.4050 214° Southwest 435 501 34,000  Level Washington Center
Sun 11:33:11 AM 36.6456 -79.4856 212° Southwest 435 501 34,000  Level Washington Center
Sun 11:34:51 AM 36.4875 -79.6156 213° Southwest 436 502 34,000  Level Atlanta Center
Sun 11:35:51 AM 36.3861 -79.6983 213° Southwest 436 502 34,000  Level Atlanta Center
Sun 11:36:51 AM 36.2847 -79.7811 213° Southwest 436 502 34,000  Level Atlanta Center
Sun 11:37:51 AM 36.1831 -79.8586 212° Southwest 431 496 34,000  Level Atlanta Center
Sun 11:38:51 AM 36.0836 -79.9408 214° Southwest 436 502 34,000  Level Atlanta Center
Sun 11:39:51 AM 35.9756 -80.0103 207° Southwest 436 502 34,000  Level Atlanta Center
Sun 11:40:51 AM 35.8628 -80.0697 203° Southwest 436 502 34,000  Level Atlanta Center
Sun 11:41:51 AM 35.7475 -80.1239 201° Southwest 442 509 34,000  Level Atlanta Center
Sun 11:42:51 AM 35.6203 -80.1889 203° Southwest 447 514 34,000  Level Atlanta Center
Sun 11:43:51 AM 35.5114 -80.2450 203° Southwest 447 514 34,000 50 Level Atlanta Center
Sun 11:44:51 AM 35.3967 -80.3064 204° Southwest 446 513 34,100  Climbing Atlanta Center
Sun 11:45:51 AM 35.2814 -80.3597 201° Southwest 446 513 34,000 -50 Descending Atlanta Center
Sun 11:46:51 AM 35.1681 -80.4131 201° Southwest 446 513 34,000  Level Atlanta Center
Sun 11:47:45 AM 35.0769 -80.4575 202° Southwest 440 506 34,000  Level Jacksonville Center
Sun 11:48:45 AM 34.9656 -80.5139 203° Southwest 440 506 34,000  Level Jacksonville Center
Sun 11:49:45 AM 34.8539 -80.5728 203° Southwest 440 506 34,000  Level Jacksonville Center
Sun 11:50:45 AM 34.7464 -80.6261 202° Southwest 433 498 34,000  Level Jacksonville Center
Sun 11:51:45 AM 34.6328 -80.6822 202° Southwest 433 498 34,000  Level Jacksonville Center
Sun 11:52:45 AM 34.5189 -80.7331 200° South 433 498 34,000  Level Jacksonville Center
Sun 11:53:45 AM 34.4072 -80.7911 203° Southwest 433 498 34,000  Level Jacksonville Center
Sun 11:54:45 AM 34.3042 -80.8639 210° Southwest 433 498 34,000  Level Jacksonville Center
Sun 11:55:45 AM 34.2200 -80.9489 220° Southwest 419 482 34,000  Level Jacksonville Center
Sun 11:56:45 AM 34.1233 -81.0514 221° Southwest 419 482 34,000  Level Jacksonville Center
Sun 11:57:45 AM 34.0308 -81.1386 218° Southwest 419 482 34,000  Level Jacksonville Center
Sun 11:58:45 AM 33.9400 -81.2231 218° Southwest 425 489 34,000  Level Jacksonville Center
Sun 11:59:45 AM 33.8472 -81.3097 218° Southwest 425 489 34,000  Level Jacksonville Center
Sun 12:00:45 PM 33.7586 -81.4011 221° Southwest 425 489 34,000  Level Jacksonville Center
Sun 12:01:45 PM 33.6681 -81.4900 219° Southwest 425 489 34,000  Level Jacksonville Center
Sun 12:02:45 PM 33.5750 -81.5789 219° Southwest 425 489 34,000  Level Jacksonville Center
Sun 12:05:15 PM 33.3522 -81.7931 219° Southwest 426 490 34,000  Level Atlanta Center
Sun 12:06:15 PM 33.2556 -81.8825 218° Southwest 433 498 34,000  Level Atlanta Center
Sun 12:07:15 PM 33.1611 -81.9717 218° Southwest 438 504 34,000  Level Atlanta Center
Sun 12:08:15 PM 33.0667 -82.0608 218° Southwest 438 504 34,000  Level Atlanta Center
Sun 12:09:15 PM 32.9719 -82.1519 219° Southwest 443 510 34,000  Level Atlanta Center
Sun 12:10:15 PM 32.8772 -82.2431 219° Southwest 443 510 34,000  Level Atlanta Center
Sun 12:11:15 PM 32.7825 -82.3342 219° Southwest 443 510 34,000  Level Atlanta Center
Sun 12:13:21 PM 32.5542 -82.5081 213° Southwest 444 511 34,000  Level Jacksonville Center
Sun 12:14:21 PM 32.4375 -82.5628 202° Southwest 439 505 34,000  Level Jacksonville Center
Sun 12:15:21 PM 32.3333 -82.6075 200° South 444 511 34,000  Level Jacksonville Center
Sun 12:16:21 PM 32.2144 -82.6494 197° South 455 524 34,000  Level Jacksonville Center
Sun 12:17:21 PM 32.0911 -82.6767 191° South 455 524 34,000  Level Jacksonville Center
Sun 12:18:21 PM 31.9658 -82.7089 192° South 455 524 34,000  Level Jacksonville Center
Sun 12:19:21 PM 31.8428 -82.7408 192° South 455 524 34,000  Level Jacksonville Center
Sun 12:20:22 PM 31.7197 -82.7850 197° South 455 524 34,000  Level Jacksonville Center
Sun 12:21:21 PM 31.6069 -82.8486 206° Southwest 455 524 34,000  Level Jacksonville Center
Sun 12:22:22 PM 31.4942 -82.9219 209° Southwest 455 524 34,000  Level Jacksonville Center
Sun 12:23:21 PM 31.3794 -82.9900 207° Southwest 460 529 34,000  Level Jacksonville Center
Sun 12:24:21 PM 31.2728 -83.0506 206° Southwest 453 521 34,000  Level Jacksonville Center
Sun 12:25:21 PM 31.1558 -83.1158 206° Southwest 448 516 34,000 -500 Level Jacksonville Center
Sun 12:26:21 PM 31.0450 -83.1858 208° Southwest 453 521 33,000 -950 Descending Jacksonville Center
Sun 12:27:21 PM 30.9300 -83.2533 207° Southwest 453 521 32,100 -942 Descending Jacksonville Center
Sun 12:28:22 PM 30.8211 -83.3183 207° Southwest 453 521 31,100 -1,050 Descending Jacksonville Center
Sun 12:29:21 PM 30.7061 -83.3856 207° Southwest 453 521 30,000 -1,000 Descending Jacksonville Center
Sun 12:30:22 PM 30.5953 -83.4500 207° Southwest 453 521 29,100 -942 Descending Jacksonville Center
Sun 12:31:22 PM 30.4781 -83.5169 206° Southwest 453 521 28,100 -1,008 Descending Jacksonville Center
Sun 12:32:21 PM 30.3628 -83.5858 207° Southwest 453 521 27,100 -1,008 Descending Jacksonville Center
Sun 12:33:21 PM 30.2475 -83.6525 207° Southwest 453 521 26,100 -1,000 Descending Jacksonville Center
Sun 12:34:21 PM 30.1281 -83.7211 206° Southwest 463 533 25,100 -1,000 Descending Jacksonville Center
Sun 12:35:21 PM 30.0108 -83.7897 207° Southwest 469 540 24,100 -1,000 Descending Jacksonville Center
Sun 12:36:21 PM 29.8997 -83.8558 207° Southwest 464 534 23,100 -1,000 Descending Jacksonville Center
Sun 12:37:21 PM 29.7825 -83.8808 190° South 454 522 22,100 -900 Descending Jacksonville Center
Sun 12:38:21 PM 29.6722 -83.8153 153° Southeast 410 472 21,300 -850 Descending Jacksonville Center
Sun 12:39:21 PM 29.5683 -83.7522 152° Southeast 410 472 20,400 -1,000 Descending Jacksonville Center
Sun 12:40:21 PM 29.4517 -83.7178 166° South 421 484 19,300 -700 Descending Jacksonville Center
Sun 12:41:21 PM 29.3392 -83.6836 165° South 421 484 19,000 -150 Descending Jacksonville Center
Sun 12:42:21 PM 29.2267 -83.6469 164° South 421 484 19,000 -400 Level Jacksonville Center
Sun 12:43:21 PM 29.1164 -83.6128 165° South 415 478 18,200 -900 Descending Jacksonville Center
Sun 12:44:21 PM 29.0017 -83.5786 165° South 415 478 17,200 -1,000 Descending Jacksonville Center
Sun 12:45:21 PM 28.8933 -83.5447 165° South 415 478 16,200 -1,000 Descending Jacksonville Center
Sun 12:46:21 PM 28.8081 -83.4731 144° Southeast 387 445 15,200 -1,000 Descending Jacksonville Center
Sun 12:47:21 PM 28.7333 -83.3803 133° Southeast 387 445 14,200 -1,000 Descending Jacksonville Center
Sun 12:48:21 PM 28.6628 -83.2900 132° Southeast 382 440 13,200 -1,000 Descending Jacksonville Center
Sun 12:50:03 PM 28.5333 -83.1500 136° Southeast 374 430 11,500 -790 Descending Tampa TRACON
Sun 12:51:08 PM 28.4606 -83.0497 130° Southeast 371 427 11,000 -263 Descending Miami Center
Sun 12:51:57 PM 28.4000 -82.9833 136° Southeast 369 425 11,000 -165 Level Tampa TRACON
Sun 12:52:57 PM 28.3000 -82.9500 164° South 366 421 10,700 -400 Descending Tampa TRACON
Sun 12:53:57 PM 28.2000 -82.9167 164° South 307 353 10,200 -900 Descending Tampa TRACON
Sun 12:54:57 PM 28.1333 -82.8833 156° South 284 327 8,900 -1,400 Descending Tampa TRACON
Sun 12:55:57 PM 28.0500 -82.8667 170° South 284 327 7,400 -1,500 Descending Tampa TRACON
Sun 12:56:57 PM 27.9833 -82.8333 156° South 284 327 5,900 -1,579 Descending Tampa TRACON
Sun 12:57:51 PM 27.9167 -82.8167 168° South 274 315 4,400 -1,550 Descending Tampa TRACON
Sun 12:58:57 PM 27.8500 -82.7667 146° Southeast 240 276 2,800 -1,429 Descending Tampa TRACON
Sun 12:59:57 PM 27.8333 -82.7000 106° East 205 236 1,400 -1,050 Descending Tampa TRACON
Sun 01:00:57 PM 27.8667 -82.6833 24° Northeast 136 157 700 -700 Descending Tampa TRACON

Login

Don't have an account? Register now (free) for customized features, flight alerts, and more!